Terminal Aerodrome Forecast
Issued by NWS

Home | Current Version | Previous Version | Text Only | Print | Product List | Glossary On
Versions: 1 2 3 4 5 6 7 8 9 10 11 12 13 14 15 16 17 18 19 20 21 22 23 24 25 26
000
FTUS43 KDLH 271131
TAFBRD
TAF
KBRD 271131Z 2712/2812 00000KT P6SM BKN110
     FM271800 14007KT P6SM VCTS OVC070CB
     FM272100 06007KT 4SM -RA BR VCTS OVC030CB
     FM280100 04005KT 2SM -RA BR VCTS OVC030CB
     FM280400 03003KT 3SM BR VCTS OVC004CB PROB30 2804/2806 4SM -RA
      BR OVC003
     FM280600 00000KT 1 1/2SM -RA BR OVC003=

USA.gov is the U.S. government's official web portal to all federal, state and local government web resources and services.